Time;durP1;ratioP1;P1;durP2;ratioP2;P2;SDS_P1;SDS_P2;PMS_P1;PMS_P2;Temp;Humidity;BMP_temperature;BMP_pressure;BME280_temperature;BME280_humidity;BME280_pressure;Samples;Min_cycle;Max_cycle;Signal;HPM_P1;HPM_P2
2022/03/08 00:00:32;;;;;;;7.32;4.35;;;;;;;;;;5099249;28;20019;-77
2022/03/08 00:02:59;;;;;;;6.57;3.92;;;;;;;;;;5103959;27;20118;-76
2022/03/08 00:05:25;;;;;;;9.38;4.40;;;;;;;;;;5094732;28;20024;-76
2022/03/08 00:07:52;;;;;;;8.80;4.35;;;;;;;;;;5104903;28;20475;-76
2022/03/08 00:10:18;;;;;;;6.97;4.53;;;;;;;;;;5104139;27;20039;-76
2022/03/08 00:12:48;;;;;;;6.47;4.20;;;;;;;;;;5087950;28;20487;-76
2022/03/08 00:15:19;;;;;;;7.90;4.80;;;;;;;;;;5107325;27;20032;-76
2022/03/08 00:17:47;;;;;;;8.30;4.00;;;;;;;;;;5095381;28;20035;-76
2022/03/08 00:20:14;;;;;;;7.35;5.32;;;;;;;;;;5108289;27;20023;-76
2022/03/08 00:22:40;;;;;;;7.25;3.88;;;;;;;;;;5100982;28;20032;-76
2022/03/08 00:25:07;;;;;;;8.93;4.80;;;;;;;;;;5103213;28;20016;-76
2022/03/08 00:27:33;;;;;;;10.75;4.95;;;;;;;;;;5106158;28;20036;-77
2022/03/08 00:29:59;;;;;;;10.52;4.60;;;;;;;;;;5110240;28;20035;-75
2022/03/08 00:32:26;;;;;;;7.90;4.90;;;;;;;;;;5101439;28;20081;-75
2022/03/08 00:34:52;;;;;;;7.53;4.35;;;;;;;;;;5106878;28;20470;-76
2022/03/08 00:37:18;;;;;;;7.88;4.60;;;;;;;;;;5096275;28;20085;-75
2022/03/08 00:39:44;;;;;;;10.40;5.63;;;;;;;;;;5101315;28;20055;-76
2022/03/08 00:42:11;;;;;;;6.70;4.20;;;;;;;;;;5113303;28;20059;-75
2022/03/08 00:44:38;;;;;;;6.93;3.95;;;;;;;;;;5101351;27;20520;-75
2022/03/08 00:47:04;;;;;;;6.32;4.32;;;;;;;;;;5106628;28;20409;-76
2022/03/08 00:49:30;;;;;;;7.75;4.57;;;;;;;;;;5093926;28;20041;-76
2022/03/08 00:51:56;;;;;;;7.40;4.70;;;;;;;;;;5102371;28;20024;-75
2022/03/08 00:54:22;;;;;;;9.40;5.57;;;;;;;;;;5098076;28;20036;-75
2022/03/08 00:56:48;;;;;;;12.07;5.43;;;;;;;;;;5100021;28;20054;-76
2022/03/08 00:59:14;;;;;;;9.55;4.72;;;;;;;;;;5107830;27;20032;-76
2022/03/08 01:01:40;;;;;;;8.52;4.90;;;;;;;;;;5108877;27;20103;-76
2022/03/08 01:04:07;;;;;;;8.73;5.20;;;;;;;;;;5103948;28;20475;-76
2022/03/08 01:06:33;;;;;;;15.70;6.18;;;;;;;;;;5109041;28;20023;-76
2022/03/08 01:08:59;;;;;;;8.05;4.70;;;;;;;;;;5107208;27;20027;-76
2022/03/08 01:11:25;;;;;;;13.98;5.15;;;;;;;;;;5109316;28;20027;-76
2022/03/08 01:13:52;;;;;;;8.23;4.90;;;;;;;;;;5078878;28;20040;-76
2022/03/08 01:16:18;;;;;;;12.02;5.30;;;;;;;;;;5105666;27;20028;-76
2022/03/08 01:18:44;;;;;;;10.23;5.07;;;;;;;;;;5112052;28;20023;-76
2022/03/08 01:21:14;;;;;;;9.98;5.63;;;;;;;;;;5084339;28;20036;-76
2022/03/08 01:23:40;;;;;;;9.65;5.50;;;;;;;;;;5102927;28;20074;-76
2022/03/08 01:26:06;;;;;;;8.23;4.97;;;;;;;;;;5093145;28;20032;-76
2022/03/08 01:28:32;;;;;;;13.68;5.43;;;;;;;;;;5104550;27;20556;-76
2022/03/08 01:30:58;;;;;;;10.30;5.57;;;;;;;;;;5095724;28;20024;-76
2022/03/08 01:33:24;;;;;;;11.48;5.88;;;;;;;;;;5110106;27;20032;-75
2022/03/08 01:35:50;;;;;;;11.95;6.18;;;;;;;;;;5090309;28;20036;-76
2022/03/08 01:38:16;;;;;;;8.75;5.03;;;;;;;;;;5106774;28;20721;-76
2022/03/08 01:40:42;;;;;;;10.52;5.50;;;;;;;;;;5104544;28;20032;-76
2022/03/08 01:43:08;;;;;;;10.00;5.32;;;;;;;;;;5110906;28;20072;-76
2022/03/08 01:45:35;;;;;;;10.02;5.40;;;;;;;;;;5099191;27;20028;-76
2022/03/08 01:48:01;;;;;;;9.40;4.93;;;;;;;;;;5103601;27;20498;-76
2022/03/08 01:50:27;;;;;;;8.55;5.35;;;;;;;;;;5107472;28;20489;-76
2022/03/08 01:52:54;;;;;;;8.80;5.10;;;;;;;;;;5105124;28;20030;-76
2022/03/08 01:55:20;;;;;;;8.52;4.50;;;;;;;;;;5106067;27;20022;-75
2022/03/08 01:57:47;;;;;;;11.73;5.53;;;;;;;;;;5083391;28;20047;-75
2022/03/08 02:00:15;;;;;;;8.82;5.53;;;;;;;;;;5104396;27;20027;-76
2022/03/08 02:02:42;;;;;;;11.00;5.85;;;;;;;;;;5108519;28;20524;-76
2022/03/08 02:05:08;;;;;;;7.95;4.88;;;;;;;;;;5104556;27;20032;-76
2022/03/08 02:07:34;;;;;;;10.88;5.57;;;;;;;;;;5095150;28;21044;-76
2022/03/08 02:10:01;;;;;;;12.02;5.43;;;;;;;;;;5103543;28;20031;-76
2022/03/08 02:12:27;;;;;;;9.88;5.45;;;;;;;;;;5103911;27;20024;-76
2022/03/08 02:14:53;;;;;;;10.93;4.90;;;;;;;;;;5097440;28;20016;-75
2022/03/08 02:17:19;;;;;;;9.60;5.15;;;;;;;;;;5095895;28;20468;-76
2022/03/08 02:19:45;;;;;;;9.68;4.93;;;;;;;;;;5097329;28;20089;-76
2022/03/08 02:22:11;;;;;;;9.13;5.07;;;;;;;;;;5091829;28;20033;-76
2022/03/08 02:24:38;;;;;;;8.60;5.07;;;;;;;;;;5102658;27;20032;-76
2022/03/08 02:27:04;;;;;;;7.65;5.07;;;;;;;;;;5099273;27;20060;-76
2022/03/08 02:29:30;;;;;;;9.95;5.65;;;;;;;;;;5100977;28;20035;-76
2022/03/08 02:31:57;;;;;;;15.02;5.63;;;;;;;;;;5100758;27;20089;-75
2022/03/08 02:34:23;;;;;;;10.32;5.30;;;;;;;;;;5110210;28;20028;-75
2022/03/08 02:37:11;;;;;;;9.32;5.05;;;;;;;;;;5102204;27;20126;-76
2022/03/08 02:39:37;;;;;;;9.57;5.25;;;;;;;;;;5107285;27;20509;-75
2022/03/08 02:42:03;;;;;;;9.23;5.63;;;;;;;;;;5102573;28;20016;-75
2022/03/08 02:44:30;;;;;;;10.88;5.47;;;;;;;;;;5103402;27;20568;-75
2022/03/08 02:46:56;;;;;;;10.70;5.88;;;;;;;;;;5098032;28;20024;-75
2022/03/08 02:49:22;;;;;;;9.80;5.90;;;;;;;;;;5108427;27;20031;-75
2022/03/08 02:51:48;;;;;;;11.10;6.10;;;;;;;;;;5102741;28;20024;-75
2022/03/08 02:54:15;;;;;;;10.82;6.43;;;;;;;;;;5110182;28;20050;-75
2022/03/08 02:56:41;;;;;;;11.45;5.63;;;;;;;;;;5082930;28;20071;-75
2022/03/08 02:59:07;;;;;;;11.43;6.20;;;;;;;;;;5099056;28;20073;-75
2022/03/08 03:01:33;;;;;;;11.52;6.13;;;;;;;;;;5098876;28;20032;-75
2022/03/08 03:03:59;;;;;;;13.85;6.57;;;;;;;;;;5102397;27;20568;-76
2022/03/08 03:06:25;;;;;;;10.82;6.15;;;;;;;;;;5094466;28;20073;-75
2022/03/08 03:08:51;;;;;;;9.73;5.07;;;;;;;;;;5106601;28;20586;-76
2022/03/08 03:11:17;;;;;;;9.55;6.00;;;;;;;;;;5102518;28;20043;-76
2022/03/08 03:13:44;;;;;;;10.30;5.80;;;;;;;;;;5104175;28;20027;-76
2022/03/08 03:16:10;;;;;;;10.55;5.88;;;;;;;;;;5105579;27;20521;-76
2022/03/08 03:18:36;;;;;;;10.90;5.90;;;;;;;;;;5108950;28;20396;-76
2022/03/08 03:21:02;;;;;;;13.05;6.05;;;;;;;;;;5101653;28;20100;-76
2022/03/08 03:23:28;;;;;;;14.95;5.78;;;;;;;;;;5100295;28;20027;-76
2022/03/08 03:25:54;;;;;;;13.23;6.90;;;;;;;;;;5098236;28;20028;-76
2022/03/08 03:28:20;;;;;;;11.27;6.18;;;;;;;;;;5104011;28;20395;-76
2022/03/08 03:30:46;;;;;;;11.63;6.45;;;;;;;;;;5104417;28;20487;-76
2022/03/08 03:33:12;;;;;;;9.90;5.95;;;;;;;;;;5098825;28;20032;-76
2022/03/08 03:35:38;;;;;;;13.15;6.50;;;;;;;;;;5108481;28;20024;-76
2022/03/08 03:38:04;;;;;;;11.55;6.75;;;;;;;;;;5104531;28;20040;-76
2022/03/08 03:40:30;;;;;;;13.20;6.93;;;;;;;;;;5105947;28;20028;-76
2022/03/08 03:42:56;;;;;;;17.05;6.40;;;;;;;;;;5097454;28;20087;-76
2022/03/08 03:45:22;;;;;;;11.10;7.07;;;;;;;;;;5100277;28;20051;-76
2022/03/08 03:47:48;;;;;;;13.55;7.30;;;;;;;;;;5096857;28;20036;-76
2022/03/08 03:50:14;;;;;;;16.08;7.55;;;;;;;;;;5093215;28;20038;-76
2022/03/08 03:52:40;;;;;;;13.57;7.57;;;;;;;;;;5096500;28;20024;-76
2022/03/08 03:55:07;;;;;;;14.65;7.18;;;;;;;;;;5110857;28;20023;-76
2022/03/08 03:57:33;;;;;;;12.13;6.25;;;;;;;;;;5098324;28;20118;-76
2022/03/08 03:59:59;;;;;;;15.15;7.70;;;;;;;;;;5097459;28;20050;-76
2022/03/08 04:02:25;;;;;;;14.70;6.88;;;;;;;;;;5072953;28;20119;-76
2022/03/08 04:04:51;;;;;;;15.63;7.72;;;;;;;;;;5098743;28;20020;-77
2022/03/08 04:07:18;;;;;;;15.57;7.28;;;;;;;;;;5073808;28;20031;-76
2022/03/08 04:09:44;;;;;;;13.25;7.95;;;;;;;;;;5098982;28;20107;-76
2022/03/08 04:12:10;;;;;;;12.25;7.75;;;;;;;;;;5100054;28;20074;-76
2022/03/08 04:14:36;;;;;;;13.38;8.00;;;;;;;;;;5109269;28;20062;-76
2022/03/08 04:17:02;;;;;;;14.90;8.05;;;;;;;;;;5100815;28;20093;-76
2022/03/08 04:19:28;;;;;;;14.93;8.90;;;;;;;;;;5110480;28;20032;-76
2022/03/08 04:21:55;;;;;;;13.77;8.73;;;;;;;;;;5103821;28;20031;-76
2022/03/08 04:24:21;;;;;;;15.25;8.52;;;;;;;;;;5107340;28;20371;-76
2022/03/08 04:26:47;;;;;;;16.55;8.75;;;;;;;;;;5093121;28;20487;-76
2022/03/08 04:29:13;;;;;;;14.93;8.60;;;;;;;;;;5101328;28;20028;-76
2022/03/08 04:31:39;;;;;;;16.05;8.63;;;;;;;;;;5105259;28;20031;-76
2022/03/08 04:34:05;;;;;;;15.65;8.10;;;;;;;;;;5096910;28;20025;-75
2022/03/08 04:36:31;;;;;;;19.63;10.02;;;;;;;;;;5095455;28;20081;-75
2022/03/08 04:38:57;;;;;;;19.30;9.38;;;;;;;;;;5110676;28;20038;-75
2022/03/08 04:41:23;;;;;;;14.15;8.30;;;;;;;;;;5087517;28;20093;-75
2022/03/08 04:43:49;;;;;;;15.75;9.13;;;;;;;;;;5096306;28;20062;-75
2022/03/08 04:46:15;;;;;;;14.05;8.30;;;;;;;;;;5099582;28;20023;-75
2022/03/08 04:48:41;;;;;;;16.25;8.95;;;;;;;;;;5076491;28;20031;-75
2022/03/08 04:51:07;;;;;;;21.35;9.75;;;;;;;;;;5088465;28;20028;-76
2022/03/08 04:53:34;;;;;;;14.77;10.07;;;;;;;;;;5102220;28;20364;-76
2022/03/08 04:56:00;;;;;;;15.75;9.25;;;;;;;;;;5101906;28;20390;-75
2022/03/08 04:58:26;;;;;;;18.10;9.27;;;;;;;;;;5077156;28;20101;-75
2022/03/08 05:00:52;;;;;;;15.18;8.77;;;;;;;;;;5105635;27;20035;-76
2022/03/08 05:03:18;;;;;;;27.75;9.73;;;;;;;;;;5112416;28;20028;-76
2022/03/08 05:05:44;;;;;;;14.88;8.27;;;;;;;;;;5106251;28;20027;-76
2022/03/08 05:08:10;;;;;;;15.25;10.05;;;;;;;;;;5104086;28;20028;-75
2022/03/08 05:10:36;;;;;;;16.40;9.68;;;;;;;;;;5098516;28;20017;-75
2022/03/08 05:13:03;;;;;;;14.82;9.55;;;;;;;;;;5093008;27;20032;-75
2022/03/08 05:15:30;;;;;;;17.42;8.88;;;;;;;;;;5109211;28;20027;-75
2022/03/08 05:17:56;;;;;;;28.20;9.07;;;;;;;;;;5103343;27;20043;-75
2022/03/08 05:20:22;;;;;;;18.30;10.23;;;;;;;;;;5112274;28;20039;-75
2022/03/08 05:22:48;;;;;;;21.08;10.07;;;;;;;;;;5100793;27;20062;-75
2022/03/08 05:25:14;;;;;;;16.65;8.95;;;;;;;;;;5107681;27;20024;-74
2022/03/08 05:27:40;;;;;;;18.15;9.32;;;;;;;;;;5101795;28;20059;-75
2022/03/08 05:30:07;;;;;;;21.30;10.93;;;;;;;;;;5100723;27;20059;-74
2022/03/08 05:32:33;;;;;;;24.80;10.32;;;;;;;;;;5092667;28;20023;-75
2022/03/08 05:34:59;;;;;;;49.75;25.80;;;;;;;;;;5100705;27;20467;-75
2022/03/08 05:37:25;;;;;;;20.10;11.15;;;;;;;;;;5105153;28;20048;-76
2022/03/08 05:39:51;;;;;;;19.02;10.38;;;;;;;;;;5103243;27;20088;-75
2022/03/08 05:42:17;;;;;;;16.48;10.23;;;;;;;;;;5101594;27;20398;-76
2022/03/08 05:44:44;;;;;;;14.88;9.32;;;;;;;;;;5097149;27;20043;-76
2022/03/08 05:47:10;;;;;;;18.13;10.57;;;;;;;;;;5109104;28;20027;-75
2022/03/08 05:49:36;;;;;;;18.75;10.23;;;;;;;;;;5104893;28;20031;-77
2022/03/08 05:52:02;;;;;;;17.23;9.52;;;;;;;;;;5103973;27;20046;-75
2022/03/08 05:54:28;;;;;;;17.42;10.80;;;;;;;;;;5104164;27;20027;-77
2022/03/08 05:56:54;;;;;;;17.45;10.23;;;;;;;;;;5109571;28;20097;-75
2022/03/08 05:59:20;;;;;;;16.42;9.60;;;;;;;;;;5098538;27;20035;-76
2022/03/08 06:01:46;;;;;;;16.55;10.70;;;;;;;;;;5103855;28;20411;-77
2022/03/08 06:04:13;;;;;;;20.45;10.95;;;;;;;;;;5101194;27;20400;-76
2022/03/08 06:06:39;;;;;;;55.75;25.65;;;;;;;;;;5102576;28;20043;-75
2022/03/08 06:09:05;;;;;;;34.88;17.50;;;;;;;;;;5101208;28;20040;-74
2022/03/08 06:11:31;;;;;;;17.30;10.13;;;;;;;;;;5106526;27;20031;-75
2022/03/08 06:13:57;;;;;;;19.15;10.50;;;;;;;;;;5101107;27;20119;-75
2022/03/08 06:16:23;;;;;;;20.13;10.60;;;;;;;;;;5096681;28;20089;-76
2022/03/08 06:18:49;;;;;;;20.80;11.05;;;;;;;;;;5092255;28;20131;-75
2022/03/08 06:21:15;;;;;;;18.33;10.48;;;;;;;;;;5082527;28;20106;-75
2022/03/08 06:23:41;;;;;;;19.25;12.05;;;;;;;;;;5076535;28;20032;-76
2022/03/08 06:26:08;;;;;;;24.67;10.63;;;;;;;;;;5100600;27;20028;-76
2022/03/08 06:28:34;;;;;;;18.60;11.05;;;;;;;;;;5101844;28;20028;-75
2022/03/08 06:31:00;;;;;;;17.02;11.18;;;;;;;;;;5102024;27;20020;-76
2022/03/08 06:33:26;;;;;;;20.27;10.30;;;;;;;;;;5103220;28;20119;-76
2022/03/08 06:35:52;;;;;;;19.98;10.45;;;;;;;;;;5100281;27;20083;-76
2022/03/08 06:38:18;;;;;;;17.65;10.85;;;;;;;;;;5104892;27;20028;-76
2022/03/08 06:40:45;;;;;;;19.40;11.30;;;;;;;;;;5101173;28;20024;-76
2022/03/08 06:43:11;;;;;;;22.23;11.43;;;;;;;;;;5104257;28;20065;-76
2022/03/08 06:45:37;;;;;;;18.92;10.50;;;;;;;;;;5100600;28;20055;-75
2022/03/08 06:48:03;;;;;;;23.73;11.15;;;;;;;;;;5092305;28;20039;-75
2022/03/08 06:50:29;;;;;;;16.92;10.35;;;;;;;;;;5087128;28;20032;-75
2022/03/08 06:52:55;;;;;;;15.90;10.07;;;;;;;;;;5095492;28;20506;-75
2022/03/08 06:55:21;;;;;;;23.70;11.45;;;;;;;;;;5102134;27;20117;-76
2022/03/08 06:57:47;;;;;;;13.98;9.50;;;;;;;;;;5104222;28;20489;-76
2022/03/08 07:00:14;;;;;;;15.70;10.10;;;;;;;;;;5103842;28;20043;-77
2022/03/08 07:02:40;;;;;;;16.20;9.93;;;;;;;;;;5102127;28;20111;-76
2022/03/08 07:05:06;;;;;;;14.32;10.45;;;;;;;;;;5097737;28;20020;-76
2022/03/08 07:07:32;;;;;;;30.33;15.00;;;;;;;;;;5092277;28;20036;-76
2022/03/08 07:09:58;;;;;;;15.25;9.50;;;;;;;;;;5088898;28;20047;-75
2022/03/08 07:12:24;;;;;;;13.38;8.88;;;;;;;;;;5105022;28;20031;-76
2022/03/08 07:14:50;;;;;;;14.35;9.23;;;;;;;;;;5103652;28;20128;-75
2022/03/08 07:17:16;;;;;;;13.30;8.38;;;;;;;;;;5104313;28;20040;-75
2022/03/08 07:19:43;;;;;;;21.65;9.77;;;;;;;;;;5094949;28;20032;-76
2022/03/08 07:22:09;;;;;;;15.38;8.32;;;;;;;;;;5097447;28;20028;-75
2022/03/08 07:24:35;;;;;;;13.82;8.57;;;;;;;;;;5101905;28;20032;-75
2022/03/08 07:27:01;;;;;;;15.10;8.43;;;;;;;;;;5096723;28;20036;-76
2022/03/08 07:29:27;;;;;;;14.85;7.95;;;;;;;;;;5100911;28;20124;-76
2022/03/08 07:31:53;;;;;;;14.85;7.80;;;;;;;;;;5105262;28;20035;-76
2022/03/08 07:34:19;;;;;;;10.93;7.65;;;;;;;;;;5104838;28;20066;-78
2022/03/08 07:36:45;;;;;;;12.95;7.38;;;;;;;;;;5095887;28;20036;-78
2022/03/08 07:39:11;;;;;;;13.52;7.72;;;;;;;;;;5098885;28;20039;-78
2022/03/08 07:41:38;;;;;;;13.43;8.10;;;;;;;;;;5105507;28;20039;-78
2022/03/08 07:44:04;;;;;;;13.18;8.13;;;;;;;;;;5096962;28;20108;-78
2022/03/08 07:46:30;;;;;;;11.50;7.60;;;;;;;;;;5105836;28;20666;-78
2022/03/08 07:48:56;;;;;;;18.55;8.50;;;;;;;;;;5117358;28;20021;-76
2022/03/08 07:51:23;;;;;;;19.65;8.10;;;;;;;;;;5078931;28;20066;-76
2022/03/08 07:53:49;;;;;;;14.93;7.95;;;;;;;;;;5108277;28;20068;-75
2022/03/08 07:56:15;;;;;;;10.23;8.00;;;;;;;;;;5075365;28;20032;-77
2022/03/08 07:58:41;;;;;;;11.52;7.68;;;;;;;;;;5097857;28;20024;-76
2022/03/08 08:01:08;;;;;;;11.82;7.80;;;;;;;;;;5095787;28;20047;-76
2022/03/08 08:03:34;;;;;;;12.23;8.32;;;;;;;;;;5101590;28;20032;-77
2022/03/08 08:06:02;;;;;;;12.30;6.95;;;;;;;;;;5095160;28;20433;-75
2022/03/08 08:08:28;;;;;;;11.00;7.30;;;;;;;;;;5098620;28;20031;-77
2022/03/08 08:10:54;;;;;;;11.38;7.38;;;;;;;;;;5107499;28;20023;-77
2022/03/08 08:13:20;;;;;;;13.43;7.50;;;;;;;;;;5097484;28;20024;-76
2022/03/08 08:15:46;;;;;;;16.27;11.07;;;;;;;;;;5100474;28;20032;-76
2022/03/08 08:18:12;;;;;;;16.05;10.05;;;;;;;;;;5096227;28;20056;-76
2022/03/08 08:20:38;;;;;;;9.98;7.55;;;;;;;;;;5097268;28;20038;-76
2022/03/08 08:23:04;;;;;;;11.90;7.78;;;;;;;;;;5105965;27;20888;-76
2022/03/08 08:25:31;;;;;;;9.75;6.80;;;;;;;;;;5102275;28;20057;-76
2022/03/08 08:27:57;;;;;;;9.45;6.80;;;;;;;;;;5101929;28;20039;-76
2022/03/08 08:30:23;;;;;;;9.60;6.55;;;;;;;;;;5081475;28;20055;-75
2022/03/08 08:32:50;;;;;;;12.15;6.50;;;;;;;;;;5106281;28;20034;-75
2022/03/08 08:35:17;;;;;;;9.57;6.30;;;;;;;;;;5104444;27;20079;-75
2022/03/08 08:37:43;;;;;;;9.23;6.90;;;;;;;;;;5098823;28;20040;-75
2022/03/08 08:40:09;;;;;;;9.80;6.22;;;;;;;;;;5103080;28;20028;-75
2022/03/08 08:42:35;;;;;;;9.00;5.68;;;;;;;;;;5099870;28;20043;-76
2022/03/08 08:45:01;;;;;;;8.32;5.88;;;;;;;;;;5106947;28;20471;-76
2022/03/08 08:47:27;;;;;;;12.63;6.65;;;;;;;;;;5108298;28;20096;-76
2022/03/08 08:49:53;;;;;;;9.32;6.30;;;;;;;;;;5113702;27;20383;-76
2022/03/08 08:52:19;;;;;;;10.88;6.20;;;;;;;;;;5100576;27;20047;-76
2022/03/08 08:54:48;;;;;;;8.20;5.95;;;;;;;;;;5103125;28;20023;-76
2022/03/08 08:57:15;;;;;;;7.70;6.03;;;;;;;;;;5101837;28;20054;-76
2022/03/08 08:59:41;;;;;;;9.38;6.32;;;;;;;;;;5099103;28;20020;-76
2022/03/08 09:02:07;;;;;;;10.95;6.00;;;;;;;;;;5097661;28;20023;-76
2022/03/08 09:04:34;;;;;;;12.13;6.28;;;;;;;;;;5105208;28;20271;-76
2022/03/08 09:07:00;;;;;;;7.55;4.97;;;;;;;;;;5109692;28;20054;-76
2022/03/08 09:09:26;;;;;;;9.13;5.20;;;;;;;;;;5095872;28;20043;-76
2022/03/08 09:11:52;;;;;;;12.60;5.35;;;;;;;;;;5080762;27;20057;-76
2022/03/08 09:14:18;;;;;;;11.02;5.50;;;;;;;;;;5121135;27;20076;-76
2022/03/08 09:16:44;;;;;;;6.05;5.15;;;;;;;;;;5081234;28;20069;-76
2022/03/08 09:19:11;;;;;;;6.18;5.03;;;;;;;;;;5098456;28;20418;-76
2022/03/08 09:21:37;;;;;;;12.23;5.05;;;;;;;;;;5074513;28;20028;-76
2022/03/08 09:24:03;;;;;;;7.95;5.03;;;;;;;;;;5083310;28;20115;-75
2022/03/08 09:26:30;;;;;;;6.32;4.85;;;;;;;;;;5076517;28;20373;-77
2022/03/08 09:28:56;;;;;;;6.85;3.95;;;;;;;;;;5107255;27;20020;-76
2022/03/08 09:31:22;;;;;;;5.20;4.28;;;;;;;;;;5108386;28;20491;-76
2022/03/08 09:33:48;;;;;;;6.07;4.80;;;;;;;;;;5082334;28;20036;-76
2022/03/08 09:36:14;;;;;;;10.98;5.03;;;;;;;;;;5101646;28;20026;-76
2022/03/08 09:38:40;;;;;;;6.07;4.68;;;;;;;;;;5095183;28;20033;-75
2022/03/08 09:41:06;;;;;;;6.47;4.43;;;;;;;;;;5114350;27;20474;-75
2022/03/08 09:43:37;;;;;;;6.07;4.28;;;;;;;;;;5118996;27;20027;-75
2022/03/08 09:46:03;;;;;;;4.82;3.90;;;;;;;;;;5108958;27;20404;-75
2022/03/08 09:48:29;;;;;;;7.15;4.60;;;;;;;;;;5087338;28;20034;-75
2022/03/08 09:50:58;;;;;;;5.53;3.80;;;;;;;;;;5104819;27;20019;-75
2022/03/08 09:53:24;;;;;;;7.00;4.25;;;;;;;;;;5107114;27;20028;-75
2022/03/08 09:55:50;;;;;;;6.82;4.15;;;;;;;;;;5111939;27;20020;-75
2022/03/08 09:58:20;;;;;;;6.63;4.60;;;;;;;;;;5074350;28;20036;-75
2022/03/08 10:00:46;;;;;;;6.13;4.00;;;;;;;;;;5098114;28;20024;-75
2022/03/08 10:03:12;;;;;;;4.97;3.80;;;;;;;;;;5097556;28;20048;-75
2022/03/08 10:05:43;;;;;;;10.18;4.07;;;;;;;;;;5106450;28;20470;-75
2022/03/08 10:08:13;;;;;;;6.43;3.35;;;;;;;;;;5102955;28;20455;-75
2022/03/08 10:10:44;;;;;;;4.68;3.47;;;;;;;;;;5112953;27;20030;-75
2022/03/08 10:13:11;;;;;;;4.93;3.50;;;;;;;;;;5105909;27;20016;-75
2022/03/08 10:15:37;;;;;;;4.07;3.40;;;;;;;;;;5095980;28;20031;-75
2022/03/08 10:18:03;;;;;;;8.35;3.80;;;;;;;;;;5095808;27;20036;-75
2022/03/08 10:20:31;;;;;;;3.83;3.10;;;;;;;;;;5100277;28;20027;-75
2022/03/08 10:22:57;;;;;;;4.50;3.45;;;;;;;;;;5106372;28;20717;-75
2022/03/08 10:25:25;;;;;;;4.72;3.65;;;;;;;;;;5104583;28;20487;-75
2022/03/08 10:27:51;;;;;;;6.13;3.70;;;;;;;;;;5111515;28;20028;-75
2022/03/08 10:30:17;;;;;;;9.35;3.83;;;;;;;;;;5080953;28;20092;-75
2022/03/08 10:32:43;;;;;;;5.18;3.65;;;;;;;;;;5106557;28;20020;-75
2022/03/08 10:35:10;;;;;;;4.03;3.63;;;;;;;;;;5076765;28;20046;-75
2022/03/08 10:37:37;;;;;;;5.10;4.20;;;;;;;;;;5099509;28;20177;-75
2022/03/08 10:40:13;;;;;;;4.50;3.75;;;;;;;;;;5096205;27;20024;-76
2022/03/08 10:42:40;;;;;;;6.50;4.13;;;;;;;;;;5109234;28;20036;-75
2022/03/08 10:45:07;;;;;;;6.28;4.18;;;;;;;;;;5104677;28;20045;-75
2022/03/08 10:47:39;;;;;;;5.85;4.07;;;;;;;;;;5102048;28;20035;-75
2022/03/08 10:50:06;;;;;;;6.35;3.92;;;;;;;;;;5072043;28;20046;-75
2022/03/08 10:52:52;;;;;;;4.82;3.95;;;;;;;;;;5098029;28;20028;-75
2022/03/08 10:55:29;;;;;;;4.13;3.72;;;;;;;;;;5086122;28;20031;-75
2022/03/08 10:58:05;;;;;;;5.72;4.03;;;;;;;;;;5085659;28;20544;-75
2022/03/08 11:00:38;;;;;;;7.30;3.63;;;;;;;;;;5109510;27;20024;-75
2022/03/08 11:03:08;;;;;;;4.70;3.75;;;;;;;;;;5092658;28;20032;-74
2022/03/08 11:05:36;;;;;;;6.38;4.13;;;;;;;;;;5101013;28;20441;-75
2022/03/08 11:08:02;;;;;;;5.88;3.90;;;;;;;;;;5093334;28;20059;-75
2022/03/08 11:10:29;;;;;;;4.13;3.20;;;;;;;;;;5107789;28;20070;-75
2022/03/08 11:12:56;;;;;;;6.30;3.55;;;;;;;;;;5087566;28;20076;-74
2022/03/08 11:15:22;;;;;;;4.28;3.03;;;;;;;;;;5094182;28;20028;-75
2022/03/08 11:17:50;;;;;;;6.00;3.45;;;;;;;;;;5099440;27;20036;-75
2022/03/08 11:20:17;;;;;;;5.50;3.45;;;;;;;;;;5107073;28;20027;-76
2022/03/08 11:22:43;;;;;;;10.63;4.07;;;;;;;;;;5105993;28;20107;-76
2022/03/08 11:25:10;;;;;;;4.07;3.53;;;;;;;;;;5103465;27;20031;-76
2022/03/08 11:27:39;;;;;;;6.55;3.33;;;;;;;;;;5058784;28;20484;-76
2022/03/08 11:30:05;;;;;;;3.90;3.35;;;;;;;;;;5098333;28;20620;-76
2022/03/08 11:32:38;;;;;;;5.18;3.60;;;;;;;;;;5074601;28;20484;-76
2022/03/08 11:35:08;;;;;;;7.18;3.75;;;;;;;;;;5092600;28;20024;-75
2022/03/08 11:37:36;;;;;;;4.05;3.50;;;;;;;;;;5101136;28;20434;-75
2022/03/08 11:40:08;;;;;;;4.50;3.53;;;;;;;;;;5076636;28;20116;-76
2022/03/08 11:42:36;;;;;;;6.95;3.25;;;;;;;;;;5105249;28;20103;-75
2022/03/08 11:45:09;;;;;;;5.15;3.35;;;;;;;;;;5101866;28;20043;-75
2022/03/08 11:47:43;;;;;;;8.23;3.63;;;;;;;;;;5111396;28;20067;-75
2022/03/08 11:50:29;;;;;;;4.43;3.33;;;;;;;;;;5101152;28;20577;-75
2022/03/08 11:53:07;;;;;;;5.00;3.65;;;;;;;;;;5106190;28;20035;-75
2022/03/08 11:55:35;;;;;;;4.10;3.50;;;;;;;;;;5101192;28;20471;-75
2022/03/08 11:58:16;;;;;;;4.82;3.42;;;;;;;;;;5107191;27;20043;-76
2022/03/08 12:00:51;;;;;;;4.20;3.40;;;;;;;;;;5106116;28;20034;-75
2022/03/08 12:03:36;;;;;;;6.32;3.47;;;;;;;;;;5116615;27;20024;-74
2022/03/08 12:06:03;;;;;;;5.75;3.40;;;;;;;;;;5102473;27;20024;-75
2022/03/08 12:08:29;;;;;;;4.20;3.03;;;;;;;;;;5104440;28;20127;-76
2022/03/08 12:11:07;;;;;;;6.10;3.28;;;;;;;;;;5101577;28;20427;-76
2022/03/08 12:13:40;;;;;;;4.65;3.22;;;;;;;;;;5107656;28;20020;-77
2022/03/08 12:16:06;;;;;;;11.55;4.60;;;;;;;;;;5107808;28;20136;-79
2022/03/08 12:18:38;;;;;;;5.40;3.95;;;;;;;;;;5104038;28;20054;-78
2022/03/08 12:21:17;;;;;;;5.47;3.72;;;;;;;;;;5104190;28;20035;-78
2022/03/08 12:24:03;;;;;;;5.20;3.67;;;;;;;;;;5107790;27;20023;-76
2022/03/08 12:26:36;;;;;;;4.63;3.35;;;;;;;;;;5108491;27;20130;-76
2022/03/08 12:29:11;;;;;;;6.00;3.50;;;;;;;;;;5096422;28;20045;-76
2022/03/08 12:32:05;;;;;;;4.45;2.92;;;;;;;;;;5100249;28;20115;-75
2022/03/08 12:34:35;;;;;;;6.68;3.40;;;;;;;;;;5100925;27;20107;-76
2022/03/08 12:37:02;;;;;;;3.20;2.70;;;;;;;;;;5104322;28;20023;-76
2022/03/08 12:39:47;;;;;;;8.80;3.95;;;;;;;;;;5096589;28;20471;-76
2022/03/08 12:42:17;;;;;;;5.88;3.50;;;;;;;;;;5081630;28;20088;-76
2022/03/08 12:45:00;;;;;;;7.15;3.25;;;;;;;;;;5108746;28;20152;-75
2022/03/08 12:47:28;;;;;;;5.70;2.83;;;;;;;;;;5106836;28;20039;-75
2022/03/08 12:49:54;;;;;;;4.47;3.10;;;;;;;;;;5107457;27;20184;-76
2022/03/08 12:52:21;;;;;;;6.68;4.90;;;;;;;;;;5085327;28;20026;-75
2022/03/08 12:54:48;;;;;;;5.50;2.65;;;;;;;;;;5104896;28;20039;-75
2022/03/08 12:57:15;;;;;;;3.35;2.53;;;;;;;;;;5091827;28;20044;-74
2022/03/08 12:59:52;;;;;;;4.07;2.65;;;;;;;;;;5110123;27;20027;-75
2022/03/08 13:02:19;;;;;;;4.13;2.60;;;;;;;;;;5101795;27;20470;-74
2022/03/08 13:04:45;;;;;;;4.72;2.45;;;;;;;;;;5100250;28;20389;-75
2022/03/08 13:07:12;;;;;;;4.85;2.70;;;;;;;;;;5096321;28;20039;-75
2022/03/08 13:09:55;;;;;;;4.70;2.50;;;;;;;;;;5098553;28;20023;-75
2022/03/08 13:12:22;;;;;;;3.22;2.58;;;;;;;;;;5101501;28;20016;-74
2022/03/08 13:15:07;;;;;;;5.78;2.78;;;;;;;;;;5101930;28;20153;-75
2022/03/08 13:17:33;;;;;;;4.22;3.05;;;;;;;;;;5099863;28;20047;-73
2022/03/08 13:19:59;;;;;;;4.65;3.33;;;;;;;;;;5094126;28;20024;-75
2022/03/08 13:22:25;;;;;;;3.03;2.50;;;;;;;;;;5104244;27;20046;-76
2022/03/08 13:25:10;;;;;;;3.58;2.30;;;;;;;;;;5095611;28;20044;-76
2022/03/08 13:27:50;;;;;;;5.13;2.75;;;;;;;;;;5091433;28;20035;-75
2022/03/08 13:30:36;;;;;;;13.15;7.65;;;;;;;;;;5095567;28;20506;-76
2022/03/08 13:33:21;;;;;;;5.03;2.78;;;;;;;;;;5104903;28;20027;-76
2022/03/08 13:35:47;;;;;;;3.45;2.47;;;;;;;;;;5105980;28;20075;-74
2022/03/08 13:38:14;;;;;;;7.13;2.85;;;;;;;;;;5099769;28;20115;-76
2022/03/08 13:40:40;;;;;;;4.80;2.40;;;;;;;;;;5102237;28;20028;-75
2022/03/08 13:43:07;;;;;;;3.08;2.13;;;;;;;;;;5105497;27;20028;-74
2022/03/08 13:45:33;;;;;;;3.63;2.10;;;;;;;;;;5104451;28;20047;-74
2022/03/08 13:48:02;;;;;;;4.80;2.58;;;;;;;;;;5106763;28;20040;-75
2022/03/08 13:50:28;;;;;;;5.65;2.53;;;;;;;;;;5104744;27;20028;-75
2022/03/08 13:52:54;;;;;;;3.95;2.88;;;;;;;;;;5110115;28;20047;-75
2022/03/08 13:55:22;;;;;;;3.55;2.10;;;;;;;;;;5098556;28;20670;-75
2022/03/08 13:58:02;;;;;;;5.25;2.67;;;;;;;;;;5078142;28;20036;-75
2022/03/08 14:00:28;;;;;;;3.35;2.38;;;;;;;;;;5097258;28;20051;-74
2022/03/08 14:02:55;;;;;;;3.03;2.45;;;;;;;;;;5105230;28;20123;-74
2022/03/08 14:05:22;;;;;;;3.30;2.53;;;;;;;;;;5106532;27;20360;-75
2022/03/08 14:08:02;;;;;;;6.78;3.83;;;;;;;;;;5099901;28;20103;-75
2022/03/08 14:10:29;;;;;;;3.08;2.22;;;;;;;;;;5083001;27;20150;-75
2022/03/08 14:12:55;;;;;;;4.50;2.50;;;;;;;;;;5097066;28;20036;-76
2022/03/08 14:15:22;;;;;;;6.85;2.65;;;;;;;;;;5096190;28;20028;-76
2022/03/08 14:17:49;;;;;;;2.83;2.13;;;;;;;;;;5106345;28;20066;-77
2022/03/08 14:20:18;;;;;;;3.55;2.70;;;;;;;;;;5106616;27;20228;-76
2022/03/08 14:22:59;;;;;;;5.22;3.00;;;;;;;;;;5103380;28;20027;-76
2022/03/08 14:25:26;;;;;;;5.95;2.80;;;;;;;;;;5101422;28;20047;-75
2022/03/08 14:27:53;;;;;;;5.45;3.55;;;;;;;;;;5100456;28;20032;-76
2022/03/08 14:30:25;;;;;;;40.42;23.30;;;;;;;;;;5106092;28;20020;-75
2022/03/08 14:32:52;;;;;;;9.05;3.40;;;;;;;;;;5095467;28;20046;-75
2022/03/08 14:35:21;;;;;;;3.70;2.97;;;;;;;;;;5100290;28;20031;-75
2022/03/08 14:37:48;;;;;;;3.67;2.92;;;;;;;;;;5106056;28;20032;-76